sensor_id;sensor_type;location;lat;lon;timestamp;P1;durP1;ratioP1;P2;durP2;ratioP2
58360;SDS011;44164;44.954;10.068;2023-04-25T00:01:47;3.88;;;1.13;;
58360;SDS011;44164;44.954;10.068;2023-04-25T00:04:13;1.55;;;0.68;;
58360;SDS011;44164;44.954;10.068;2023-04-25T00:06:39;1.30;;;0.60;;
58360;SDS011;44164;44.954;10.068;2023-04-25T00:09:06;1.52;;;0.70;;
58360;SDS011;44164;44.954;10.068;2023-04-25T00:11:36;2.30;;;0.70;;
58360;SDS011;44164;44.954;10.068;2023-04-25T00:14:03;1.13;;;0.40;;
58360;SDS011;44164;44.954;10.068;2023-04-25T00:16:30;1.30;;;0.70;;
58360;SDS011;44164;44.954;10.068;2023-04-25T00:18:59;1.63;;;0.70;;
58360;SDS011;44164;44.954;10.068;2023-04-25T00:21:27;2.90;;;0.60;;
58360;SDS011;44164;44.954;10.068;2023-04-25T00:23:54;1.38;;;0.75;;
58360;SDS011;44164;44.954;10.068;2023-04-25T00:26:20;2.67;;;1.00;;
58360;SDS011;44164;44.954;10.068;2023-04-25T00:28:47;0.93;;;0.50;;
58360;SDS011;44164;44.954;10.068;2023-04-25T00:31:13;1.92;;;0.90;;
58360;SDS011;44164;44.954;10.068;2023-04-25T00:33:40;1.15;;;0.65;;
58360;SDS011;44164;44.954;10.068;2023-04-25T00:36:06;2.55;;;0.80;;
58360;SDS011;44164;44.954;10.068;2023-04-25T00:38:33;1.45;;;0.80;;
58360;SDS011;44164;44.954;10.068;2023-04-25T00:40:59;1.42;;;0.85;;
58360;SDS011;44164;44.954;10.068;2023-04-25T00:43:26;2.65;;;0.80;;
58360;SDS011;44164;44.954;10.068;2023-04-25T00:45:52;1.10;;;0.60;;
58360;SDS011;44164;44.954;10.068;2023-04-25T00:48:20;1.55;;;0.63;;
58360;SDS011;44164;44.954;10.068;2023-04-25T00:50:54;1.23;;;0.47;;
58360;SDS011;44164;44.954;10.068;2023-04-25T00:53:23;0.90;;;0.50;;
58360;SDS011;44164;44.954;10.068;2023-04-25T00:55:52;2.28;;;0.70;;
58360;SDS011;44164;44.954;10.068;2023-04-25T00:58:19;1.83;;;0.75;;
58360;SDS011;44164;44.954;10.068;2023-04-25T01:00:46;1.40;;;0.65;;
58360;SDS011;44164;44.954;10.068;2023-04-25T01:03:14;1.92;;;0.85;;
58360;SDS011;44164;44.954;10.068;2023-04-25T01:05:43;1.05;;;0.50;;
58360;SDS011;44164;44.954;10.068;2023-04-25T01:08:09;1.48;;;0.70;;
58360;SDS011;44164;44.954;10.068;2023-04-25T01:10:36;2.40;;;0.90;;
58360;SDS011;44164;44.954;10.068;2023-04-25T01:13:02;1.70;;;0.73;;
58360;SDS011;44164;44.954;10.068;2023-04-25T01:15:29;1.92;;;0.70;;
58360;SDS011;44164;44.954;10.068;2023-04-25T01:17:55;1.00;;;0.50;;
58360;SDS011;44164;44.954;10.068;2023-04-25T01:20:21;0.88;;;0.50;;
58360;SDS011;44164;44.954;10.068;2023-04-25T01:22:51;1.58;;;0.68;;
58360;SDS011;44164;44.954;10.068;2023-04-25T01:25:20;0.70;;;0.40;;
58360;SDS011;44164;44.954;10.068;2023-04-25T01:27:47;0.98;;;0.60;;
58360;SDS011;44164;44.954;10.068;2023-04-25T01:30:13;1.00;;;0.55;;
58360;SDS011;44164;44.954;10.068;2023-04-25T01:32:41;2.55;;;0.68;;
58360;SDS011;44164;44.954;10.068;2023-04-25T01:35:08;1.02;;;0.57;;
58360;SDS011;44164;44.954;10.068;2023-04-25T01:40:03;1.35;;;1.10;;
58360;SDS011;44164;44.954;10.068;2023-04-25T01:42:34;1.08;;;0.70;;
58360;SDS011;44164;44.954;10.068;2023-04-25T01:45:02;1.73;;;0.70;;
58360;SDS011;44164;44.954;10.068;2023-04-25T01:47:28;1.15;;;0.60;;
58360;SDS011;44164;44.954;10.068;2023-04-25T01:49:55;1.10;;;0.52;;
58360;SDS011;44164;44.954;10.068;2023-04-25T01:52:22;2.75;;;0.95;;
58360;SDS011;44164;44.954;10.068;2023-04-25T01:54:49;1.20;;;0.68;;
58360;SDS011;44164;44.954;10.068;2023-04-25T01:57:17;1.48;;;0.60;;
58360;SDS011;44164;44.954;10.068;2023-04-25T01:59:44;0.98;;;0.60;;
58360;SDS011;44164;44.954;10.068;2023-04-25T02:02:36;0.90;;;0.60;;
58360;SDS011;44164;44.954;10.068;2023-04-25T02:07:32;1.92;;;0.70;;
58360;SDS011;44164;44.954;10.068;2023-04-25T02:09:58;1.55;;;0.73;;
58360;SDS011;44164;44.954;10.068;2023-04-25T02:12:27;1.13;;;0.60;;
58360;SDS011;44164;44.954;10.068;2023-04-25T02:15:20;1.27;;;0.57;;
58360;SDS011;44164;44.954;10.068;2023-04-25T02:17:52;1.33;;;0.80;;
58360;SDS011;44164;44.954;10.068;2023-04-25T02:20:18;1.05;;;0.60;;
58360;SDS011;44164;44.954;10.068;2023-04-25T02:22:46;2.08;;;0.70;;
58360;SDS011;44164;44.954;10.068;2023-04-25T02:25:13;1.08;;;0.60;;
58360;SDS011;44164;44.954;10.068;2023-04-25T02:27:40;1.40;;;0.77;;
58360;SDS011;44164;44.954;10.068;2023-04-25T02:30:07;2.10;;;0.50;;
58360;SDS011;44164;44.954;10.068;2023-04-25T02:32:33;1.20;;;0.65;;
58360;SDS011;44164;44.954;10.068;2023-04-25T02:35:00;1.42;;;0.60;;
58360;SDS011;44164;44.954;10.068;2023-04-25T02:37:30;1.17;;;0.50;;
58360;SDS011;44164;44.954;10.068;2023-04-25T02:39:56;1.27;;;0.73;;
58360;SDS011;44164;44.954;10.068;2023-04-25T02:42:23;1.42;;;0.65;;
58360;SDS011;44164;44.954;10.068;2023-04-25T02:44:49;2.60;;;0.88;;
58360;SDS011;44164;44.954;10.068;2023-04-25T02:47:15;1.08;;;0.57;;
58360;SDS011;44164;44.954;10.068;2023-04-25T02:49:42;2.45;;;0.70;;
58360;SDS011;44164;44.954;10.068;2023-04-25T02:52:09;1.58;;;0.75;;
58360;SDS011;44164;44.954;10.068;2023-04-25T02:54:35;2.35;;;0.63;;
58360;SDS011;44164;44.954;10.068;2023-04-25T02:57:02;1.20;;;0.68;;
58360;SDS011;44164;44.954;10.068;2023-04-25T02:59:34;0.93;;;0.50;;
58360;SDS011;44164;44.954;10.068;2023-04-25T03:02:00;1.20;;;0.50;;
58360;SDS011;44164;44.954;10.068;2023-04-25T03:04:27;0.75;;;0.50;;
58360;SDS011;44164;44.954;10.068;2023-04-25T03:06:54;0.93;;;0.60;;
58360;SDS011;44164;44.954;10.068;2023-04-25T03:09:21;0.75;;;0.52;;
58360;SDS011;44164;44.954;10.068;2023-04-25T03:11:47;0.63;;;0.47;;
58360;SDS011;44164;44.954;10.068;2023-04-25T03:14:13;1.42;;;0.70;;
58360;SDS011;44164;44.954;10.068;2023-04-25T03:16:40;1.08;;;0.70;;
58360;SDS011;44164;44.954;10.068;2023-04-25T03:19:06;1.50;;;0.68;;
58360;SDS011;44164;44.954;10.068;2023-04-25T03:21:32;1.25;;;0.60;;
58360;SDS011;44164;44.954;10.068;2023-04-25T03:24:02;2.00;;;0.60;;
58360;SDS011;44164;44.954;10.068;2023-04-25T03:26:30;1.27;;;0.60;;
58360;SDS011;44164;44.954;10.068;2023-04-25T03:28:56;0.90;;;0.50;;
58360;SDS011;44164;44.954;10.068;2023-04-25T03:31:22;1.17;;;0.60;;
58360;SDS011;44164;44.954;10.068;2023-04-25T03:33:48;0.70;;;0.50;;
58360;SDS011;44164;44.954;10.068;2023-04-25T03:38:42;0.70;;;0.50;;
58360;SDS011;44164;44.954;10.068;2023-04-25T03:41:10;0.95;;;0.50;;
58360;SDS011;44164;44.954;10.068;2023-04-25T03:43:49;0.85;;;0.50;;
58360;SDS011;44164;44.954;10.068;2023-04-25T03:46:16;1.20;;;0.57;;
58360;SDS011;44164;44.954;10.068;2023-04-25T03:48:42;1.23;;;0.50;;
58360;SDS011;44164;44.954;10.068;2023-04-25T03:51:12;0.93;;;0.50;;
58360;SDS011;44164;44.954;10.068;2023-04-25T03:53:41;0.75;;;0.50;;
58360;SDS011;44164;44.954;10.068;2023-04-25T03:56:27;1.05;;;0.60;;
58360;SDS011;44164;44.954;10.068;2023-04-25T03:59:01;1.35;;;0.60;;
58360;SDS011;44164;44.954;10.068;2023-04-25T04:01:28;1.65;;;0.50;;
58360;SDS011;44164;44.954;10.068;2023-04-25T04:03:55;1.23;;;0.70;;
58360;SDS011;44164;44.954;10.068;2023-04-25T04:06:21;1.17;;;0.60;;
58360;SDS011;44164;44.954;10.068;2023-04-25T04:08:51;0.75;;;0.50;;
58360;SDS011;44164;44.954;10.068;2023-04-25T04:11:17;0.85;;;0.55;;
58360;SDS011;44164;44.954;10.068;2023-04-25T04:13:43;0.85;;;0.52;;
58360;SDS011;44164;44.954;10.068;2023-04-25T04:16:10;2.28;;;0.77;;
58360;SDS011;44164;44.954;10.068;2023-04-25T04:18:36;1.38;;;0.70;;
58360;SDS011;44164;44.954;10.068;2023-04-25T04:21:02;1.02;;;0.60;;
58360;SDS011;44164;44.954;10.068;2023-04-25T04:23:32;1.05;;;0.52;;
58360;SDS011;44164;44.954;10.068;2023-04-25T04:25:59;0.80;;;0.40;;
58360;SDS011;44164;44.954;10.068;2023-04-25T04:28:44;0.57;;;0.40;;
58360;SDS011;44164;44.954;10.068;2023-04-25T04:31:34;1.50;;;0.85;;
58360;SDS011;44164;44.954;10.068;2023-04-25T04:34:02;1.03;;;0.67;;
58360;SDS011;44164;44.954;10.068;2023-04-25T04:36:30;1.58;;;0.60;;
58360;SDS011;44164;44.954;10.068;2023-04-25T04:38:57;1.02;;;0.52;;
58360;SDS011;44164;44.954;10.068;2023-04-25T04:41:43;1.85;;;0.50;;
58360;SDS011;44164;44.954;10.068;2023-04-25T04:44:14;1.02;;;0.70;;
58360;SDS011;44164;44.954;10.068;2023-04-25T04:47:03;0.80;;;0.50;;
58360;SDS011;44164;44.954;10.068;2023-04-25T04:49:50;0.98;;;0.70;;
58360;SDS011;44164;44.954;10.068;2023-04-25T04:52:29;1.98;;;0.70;;
58360;SDS011;44164;44.954;10.068;2023-04-25T04:55:19;1.05;;;0.52;;
58360;SDS011;44164;44.954;10.068;2023-04-25T04:58:03;1.17;;;0.60;;
58360;SDS011;44164;44.954;10.068;2023-04-25T05:00:47;0.70;;;0.60;;
58360;SDS011;44164;44.954;10.068;2023-04-25T05:03:33;0.88;;;0.55;;
58360;SDS011;44164;44.954;10.068;2023-04-25T05:06:11;0.90;;;0.60;;
58360;SDS011;44164;44.954;10.068;2023-04-25T05:08:57;1.35;;;0.50;;
58360;SDS011;44164;44.954;10.068;2023-04-25T05:11:48;1.15;;;0.40;;
58360;SDS011;44164;44.954;10.068;2023-04-25T05:14:30;1.70;;;0.70;;
58360;SDS011;44164;44.954;10.068;2023-04-25T05:17:14;2.75;;;0.52;;
58360;SDS011;44164;44.954;10.068;2023-04-25T05:19:59;1.10;;;0.60;;
58360;SDS011;44164;44.954;10.068;2023-04-25T05:23:04;1.05;;;0.65;;
58360;SDS011;44164;44.954;10.068;2023-04-25T05:25:49;0.50;;;0.50;;
58360;SDS011;44164;44.954;10.068;2023-04-25T05:28:22;0.95;;;0.60;;
58360;SDS011;44164;44.954;10.068;2023-04-25T05:31:14;1.10;;;0.60;;
58360;SDS011;44164;44.954;10.068;2023-04-25T05:33:49;1.17;;;0.70;;
58360;SDS011;44164;44.954;10.068;2023-04-25T05:36:17;1.38;;;0.60;;
58360;SDS011;44164;44.954;10.068;2023-04-25T05:38:46;0.75;;;0.50;;
58360;SDS011;44164;44.954;10.068;2023-04-25T05:41:51;1.25;;;0.47;;
58360;SDS011;44164;44.954;10.068;2023-04-25T05:44:36;0.45;;;0.30;;
58360;SDS011;44164;44.954;10.068;2023-04-25T05:47:17;1.27;;;0.52;;
58360;SDS011;44164;44.954;10.068;2023-04-25T05:50:02;1.10;;;0.70;;
58360;SDS011;44164;44.954;10.068;2023-04-25T05:53:01;1.65;;;0.68;;
58360;SDS011;44164;44.954;10.068;2023-04-25T05:55:30;1.33;;;0.70;;
58360;SDS011;44164;44.954;10.068;2023-04-25T06:00:24;1.33;;;0.50;;
58360;SDS011;44164;44.954;10.068;2023-04-25T06:02:50;1.23;;;0.60;;
58360;SDS011;44164;44.954;10.068;2023-04-25T06:05:17;1.08;;;0.60;;
58360;SDS011;44164;44.954;10.068;2023-04-25T06:07:45;1.52;;;0.70;;
58360;SDS011;44164;44.954;10.068;2023-04-25T06:10:11;1.02;;;0.50;;
58360;SDS011;44164;44.954;10.068;2023-04-25T06:12:38;1.33;;;0.55;;
58360;SDS011;44164;44.954;10.068;2023-04-25T06:15:05;1.15;;;0.50;;
58360;SDS011;44164;44.954;10.068;2023-04-25T06:17:32;0.98;;;0.60;;
58360;SDS011;44164;44.954;10.068;2023-04-25T06:19:58;1.25;;;0.68;;
58360;SDS011;44164;44.954;10.068;2023-04-25T06:22:24;1.10;;;0.50;;
58360;SDS011;44164;44.954;10.068;2023-04-25T06:24:50;1.02;;;0.43;;
58360;SDS011;44164;44.954;10.068;2023-04-25T06:27:16;1.67;;;0.80;;
58360;SDS011;44164;44.954;10.068;2023-04-25T06:29:42;1.10;;;0.63;;
58360;SDS011;44164;44.954;10.068;2023-04-25T06:32:09;1.10;;;0.63;;
58360;SDS011;44164;44.954;10.068;2023-04-25T06:34:35;1.63;;;0.60;;
58360;SDS011;44164;44.954;10.068;2023-04-25T06:37:01;0.75;;;0.50;;
58360;SDS011;44164;44.954;10.068;2023-04-25T06:39:28;1.35;;;0.75;;
58360;SDS011;44164;44.954;10.068;2023-04-25T06:41:55;1.55;;;0.70;;
58360;SDS011;44164;44.954;10.068;2023-04-25T06:44:45;1.35;;;0.70;;
58360;SDS011;44164;44.954;10.068;2023-04-25T06:47:12;2.35;;;0.77;;
58360;SDS011;44164;44.954;10.068;2023-04-25T06:49:41;1.35;;;0.50;;
58360;SDS011;44164;44.954;10.068;2023-04-25T06:52:08;1.27;;;0.63;;
58360;SDS011;44164;44.954;10.068;2023-04-25T06:54:34;1.58;;;0.57;;
58360;SDS011;44164;44.954;10.068;2023-04-25T06:57:08;1.50;;;0.73;;
58360;SDS011;44164;44.954;10.068;2023-04-25T06:59:34;1.60;;;0.80;;
58360;SDS011;44164;44.954;10.068;2023-04-25T07:02:02;1.92;;;0.80;;
58360;SDS011;44164;44.954;10.068;2023-04-25T07:04:29;1.52;;;0.60;;
58360;SDS011;44164;44.954;10.068;2023-04-25T07:06:57;1.30;;;0.70;;
58360;SDS011;44164;44.954;10.068;2023-04-25T07:09:40;1.58;;;0.60;;
58360;SDS011;44164;44.954;10.068;2023-04-25T07:12:06;1.52;;;0.63;;
58360;SDS011;44164;44.954;10.068;2023-04-25T07:14:33;1.15;;;0.70;;
58360;SDS011;44164;44.954;10.068;2023-04-25T07:17:00;0.80;;;0.60;;
58360;SDS011;44164;44.954;10.068;2023-04-25T07:19:28;0.80;;;0.60;;
58360;SDS011;44164;44.954;10.068;2023-04-25T07:21:58;1.08;;;0.60;;
58360;SDS011;44164;44.954;10.068;2023-04-25T07:24:26;1.48;;;0.90;;
58360;SDS011;44164;44.954;10.068;2023-04-25T07:26:54;1.30;;;0.80;;
58360;SDS011;44164;44.954;10.068;2023-04-25T07:29:30;1.27;;;0.70;;
58360;SDS011;44164;44.954;10.068;2023-04-25T07:31:59;1.15;;;0.60;;
58360;SDS011;44164;44.954;10.068;2023-04-25T07:34:25;1.08;;;0.68;;
58360;SDS011;44164;44.954;10.068;2023-04-25T07:36:51;1.00;;;0.60;;
58360;SDS011;44164;44.954;10.068;2023-04-25T07:39:18;1.02;;;0.75;;
58360;SDS011;44164;44.954;10.068;2023-04-25T07:41:45;1.92;;;0.70;;
58360;SDS011;44164;44.954;10.068;2023-04-25T07:44:18;1.60;;;0.60;;
58360;SDS011;44164;44.954;10.068;2023-04-25T07:46:44;1.52;;;0.40;;
58360;SDS011;44164;44.954;10.068;2023-04-25T07:49:11;1.85;;;0.85;;
58360;SDS011;44164;44.954;10.068;2023-04-25T07:51:38;1.08;;;0.70;;
58360;SDS011;44164;44.954;10.068;2023-04-25T07:54:09;1.13;;;0.60;;
58360;SDS011;44164;44.954;10.068;2023-04-25T07:56:42;1.30;;;0.70;;
58360;SDS011;44164;44.954;10.068;2023-04-25T07:59:08;1.25;;;0.63;;
58360;SDS011;44164;44.954;10.068;2023-04-25T08:01:34;1.98;;;0.70;;
58360;SDS011;44164;44.954;10.068;2023-04-25T08:04:03;5.20;;;0.70;;
58360;SDS011;44164;44.954;10.068;2023-04-25T08:06:43;1.17;;;0.57;;
58360;SDS011;44164;44.954;10.068;2023-04-25T08:09:16;0.90;;;0.50;;
58360;SDS011;44164;44.954;10.068;2023-04-25T08:11:42;1.35;;;0.63;;
58360;SDS011;44164;44.954;10.068;2023-04-25T08:14:11;1.25;;;0.70;;
58360;SDS011;44164;44.954;10.068;2023-04-25T08:16:39;2.80;;;0.75;;
58360;SDS011;44164;44.954;10.068;2023-04-25T08:19:05;4.40;;;0.95;;
58360;SDS011;44164;44.954;10.068;2023-04-25T08:21:32;3.30;;;0.63;;
58360;SDS011;44164;44.954;10.068;2023-04-25T08:24:02;0.93;;;0.50;;
58360;SDS011;44164;44.954;10.068;2023-04-25T08:26:33;1.08;;;0.60;;
58360;SDS011;44164;44.954;10.068;2023-04-25T08:29:00;1.13;;;0.45;;
58360;SDS011;44164;44.954;10.068;2023-04-25T08:31:26;1.08;;;0.60;;
58360;SDS011;44164;44.954;10.068;2023-04-25T08:33:59;0.95;;;0.50;;
58360;SDS011;44164;44.954;10.068;2023-04-25T08:36:31;1.83;;;0.63;;
58360;SDS011;44164;44.954;10.068;2023-04-25T08:38:58;1.92;;;0.70;;
58360;SDS011;44164;44.954;10.068;2023-04-25T08:41:25;3.17;;;0.68;;
58360;SDS011;44164;44.954;10.068;2023-04-25T08:43:51;1.90;;;0.68;;
58360;SDS011;44164;44.954;10.068;2023-04-25T08:46:19;0.73;;;0.40;;
58360;SDS011;44164;44.954;10.068;2023-04-25T08:49:02;1.38;;;0.70;;
58360;SDS011;44164;44.954;10.068;2023-04-25T08:51:30;0.95;;;0.50;;
58360;SDS011;44164;44.954;10.068;2023-04-25T08:54:04;2.47;;;0.95;;
58360;SDS011;44164;44.954;10.068;2023-04-25T08:56:35;2.05;;;0.60;;
58360;SDS011;44164;44.954;10.068;2023-04-25T08:59:02;1.80;;;0.70;;
58360;SDS011;44164;44.954;10.068;2023-04-25T09:01:29;2.45;;;0.70;;
58360;SDS011;44164;44.954;10.068;2023-04-25T09:03:57;2.90;;;0.60;;
58360;SDS011;44164;44.954;10.068;2023-04-25T09:06:23;3.05;;;0.43;;
58360;SDS011;44164;44.954;10.068;2023-04-25T09:08:50;5.47;;;0.60;;
58360;SDS011;44164;44.954;10.068;2023-04-25T09:11:16;0.90;;;0.50;;
58360;SDS011;44164;44.954;10.068;2023-04-25T09:13:43;3.58;;;0.80;;
58360;SDS011;44164;44.954;10.068;2023-04-25T09:16:29;0.85;;;0.60;;
58360;SDS011;44164;44.954;10.068;2023-04-25T09:19:25;1.02;;;0.60;;
58360;SDS011;44164;44.954;10.068;2023-04-25T09:21:57;1.05;;;0.60;;
58360;SDS011;44164;44.954;10.068;2023-04-25T09:27:08;0.82;;;0.50;;
58360;SDS011;44164;44.954;10.068;2023-04-25T09:29:35;3.20;;;0.50;;
58360;SDS011;44164;44.954;10.068;2023-04-25T09:32:17;1.63;;;0.60;;
58360;SDS011;44164;44.954;10.068;2023-04-25T09:37:27;2.05;;;0.40;;
58360;SDS011;44164;44.954;10.068;2023-04-25T09:40:13;2.08;;;0.60;;
58360;SDS011;44164;44.954;10.068;2023-04-25T09:42:51;2.65;;;0.50;;
58360;SDS011;44164;44.954;10.068;2023-04-25T09:45:18;1.17;;;0.50;;
58360;SDS011;44164;44.954;10.068;2023-04-25T09:47:44;1.63;;;0.60;;
58360;SDS011;44164;44.954;10.068;2023-04-25T09:50:15;2.33;;;0.50;;
58360;SDS011;44164;44.954;10.068;2023-04-25T09:52:45;2.47;;;0.77;;
58360;SDS011;44164;44.954;10.068;2023-04-25T09:55:22;1.83;;;0.50;;
58360;SDS011;44164;44.954;10.068;2023-04-25T09:57:49;1.85;;;0.70;;
58360;SDS011;44164;44.954;10.068;2023-04-25T10:00:19;1.00;;;0.60;;
58360;SDS011;44164;44.954;10.068;2023-04-25T10:02:46;0.98;;;0.38;;
58360;SDS011;44164;44.954;10.068;2023-04-25T10:05:37;0.77;;;0.47;;
58360;SDS011;44164;44.954;10.068;2023-04-25T10:08:03;1.67;;;0.60;;
58360;SDS011;44164;44.954;10.068;2023-04-25T10:10:30;0.73;;;0.45;;
58360;SDS011;44164;44.954;10.068;2023-04-25T10:13:05;0.70;;;0.40;;
58360;SDS011;44164;44.954;10.068;2023-04-25T10:15:33;0.85;;;0.40;;
58360;SDS011;44164;44.954;10.068;2023-04-25T10:18:01;2.05;;;0.85;;
58360;SDS011;44164;44.954;10.068;2023-04-25T10:20:28;2.60;;;0.97;;
58360;SDS011;44164;44.954;10.068;2023-04-25T10:22:55;2.95;;;0.70;;
58360;SDS011;44164;44.954;10.068;2023-04-25T10:25:27;1.80;;;0.63;;
58360;SDS011;44164;44.954;10.068;2023-04-25T10:27:53;1.45;;;0.50;;
58360;SDS011;44164;44.954;10.068;2023-04-25T10:30:19;1.10;;;0.50;;
58360;SDS011;44164;44.954;10.068;2023-04-25T10:32:45;2.38;;;0.40;;
58360;SDS011;44164;44.954;10.068;2023-04-25T10:35:13;2.55;;;0.70;;
58360;SDS011;44164;44.954;10.068;2023-04-25T10:40:26;0.88;;;0.30;;
58360;SDS011;44164;44.954;10.068;2023-04-25T10:42:53;0.93;;;0.43;;
58360;SDS011;44164;44.954;10.068;2023-04-25T10:45:20;0.85;;;0.60;;
58360;SDS011;44164;44.954;10.068;2023-04-25T10:47:46;0.88;;;0.60;;
58360;SDS011;44164;44.954;10.068;2023-04-25T10:50:14;0.80;;;0.40;;
58360;SDS011;44164;44.954;10.068;2023-04-25T10:52:42;2.03;;;0.50;;
58360;SDS011;44164;44.954;10.068;2023-04-25T10:55:08;1.27;;;0.50;;
58360;SDS011;44164;44.954;10.068;2023-04-25T10:57:39;2.72;;;0.50;;
58360;SDS011;44164;44.954;10.068;2023-04-25T11:02:47;2.45;;;0.50;;
58360;SDS011;44164;44.954;10.068;2023-04-25T11:05:34;3.67;;;0.40;;
58360;SDS011;44164;44.954;10.068;2023-04-25T11:08:01;1.50;;;0.60;;
58360;SDS011;44164;44.954;10.068;2023-04-25T11:10:29;1.52;;;0.50;;
58360;SDS011;44164;44.954;10.068;2023-04-25T11:12:57;0.70;;;0.40;;
58360;SDS011;44164;44.954;10.068;2023-04-25T11:15:23;3.78;;;0.60;;
58360;SDS011;44164;44.954;10.068;2023-04-25T11:17:53;1.77;;;0.45;;
58360;SDS011;44164;44.954;10.068;2023-04-25T11:20:20;1.35;;;0.50;;
58360;SDS011;44164;44.954;10.068;2023-04-25T11:22:47;1.73;;;0.50;;
58360;SDS011;44164;44.954;10.068;2023-04-25T11:25:14;3.13;;;0.65;;
58360;SDS011;44164;44.954;10.068;2023-04-25T11:27:51;0.95;;;0.60;;
58360;SDS011;44164;44.954;10.068;2023-04-25T11:30:18;1.65;;;0.55;;
58360;SDS011;44164;44.954;10.068;2023-04-25T11:32:45;1.85;;;0.55;;
58360;SDS011;44164;44.954;10.068;2023-04-25T11:35:11;2.25;;;0.60;;
58360;SDS011;44164;44.954;10.068;2023-04-25T11:37:41;1.23;;;0.60;;
58360;SDS011;44164;44.954;10.068;2023-04-25T11:40:08;1.77;;;0.88;;
58360;SDS011;44164;44.954;10.068;2023-04-25T11:42:38;3.00;;;0.80;;
58360;SDS011;44164;44.954;10.068;2023-04-25T11:45:05;1.35;;;0.50;;
58360;SDS011;44164;44.954;10.068;2023-04-25T11:47:33;1.13;;;0.55;;
58360;SDS011;44164;44.954;10.068;2023-04-25T11:49:59;2.95;;;0.70;;
58360;SDS011;44164;44.954;10.068;2023-04-25T11:52:45;0.70;;;0.47;;
58360;SDS011;44164;44.954;10.068;2023-04-25T11:55:12;2.20;;;1.13;;
58360;SDS011;44164;44.954;10.068;2023-04-25T11:57:43;2.15;;;0.73;;
58360;SDS011;44164;44.954;10.068;2023-04-25T12:00:11;2.72;;;0.50;;
58360;SDS011;44164;44.954;10.068;2023-04-25T12:02:42;3.47;;;0.60;;
58360;SDS011;44164;44.954;10.068;2023-04-25T12:05:17;3.92;;;0.80;;
58360;SDS011;44164;44.954;10.068;2023-04-25T12:07:43;1.23;;;0.77;;
58360;SDS011;44164;44.954;10.068;2023-04-25T12:10:10;1.90;;;0.80;;
58360;SDS011;44164;44.954;10.068;2023-04-25T12:12:38;2.38;;;0.70;;
58360;SDS011;44164;44.954;10.068;2023-04-25T12:15:11;2.45;;;0.77;;
58360;SDS011;44164;44.954;10.068;2023-04-25T12:17:41;2.88;;;0.70;;
58360;SDS011;44164;44.954;10.068;2023-04-25T12:20:09;4.97;;;1.67;;
58360;SDS011;44164;44.954;10.068;2023-04-25T12:22:37;4.38;;;1.52;;
58360;SDS011;44164;44.954;10.068;2023-04-25T12:25:04;4.20;;;1.50;;
58360;SDS011;44164;44.954;10.068;2023-04-25T12:27:31;6.45;;;2.28;;
58360;SDS011;44164;44.954;10.068;2023-04-25T12:29:57;4.55;;;1.90;;
58360;SDS011;44164;44.954;10.068;2023-04-25T12:32:23;4.05;;;1.48;;
58360;SDS011;44164;44.954;10.068;2023-04-25T12:34:50;5.25;;;1.65;;
58360;SDS011;44164;44.954;10.068;2023-04-25T12:37:16;4.97;;;1.70;;
58360;SDS011;44164;44.954;10.068;2023-04-25T12:39:42;5.40;;;2.10;;
58360;SDS011;44164;44.954;10.068;2023-04-25T12:42:08;3.63;;;1.65;;
58360;SDS011;44164;44.954;10.068;2023-04-25T12:44:37;7.65;;;1.98;;
58360;SDS011;44164;44.954;10.068;2023-04-25T12:47:03;5.90;;;1.95;;
58360;SDS011;44164;44.954;10.068;2023-04-25T12:49:31;5.78;;;1.73;;
58360;SDS011;44164;44.954;10.068;2023-04-25T12:51:57;4.85;;;2.13;;
58360;SDS011;44164;44.954;10.068;2023-04-25T12:54:23;3.28;;;1.67;;
58360;SDS011;44164;44.954;10.068;2023-04-25T12:56:51;6.97;;;1.40;;
58360;SDS011;44164;44.954;10.068;2023-04-25T12:59:17;5.20;;;1.70;;
58360;SDS011;44164;44.954;10.068;2023-04-25T13:01:43;3.40;;;1.20;;
58360;SDS011;44164;44.954;10.068;2023-04-25T13:04:10;3.10;;;1.55;;
58360;SDS011;44164;44.954;10.068;2023-04-25T13:06:37;4.50;;;1.45;;
58360;SDS011;44164;44.954;10.068;2023-04-25T13:09:03;5.40;;;1.77;;
58360;SDS011;44164;44.954;10.068;2023-04-25T13:11:29;4.18;;;1.30;;
58360;SDS011;44164;44.954;10.068;2023-04-25T13:13:55;7.68;;;1.70;;
58360;SDS011;44164;44.954;10.068;2023-04-25T13:16:21;4.05;;;2.20;;
58360;SDS011;44164;44.954;10.068;2023-04-25T13:18:48;3.85;;;1.45;;
58360;SDS011;44164;44.954;10.068;2023-04-25T13:21:14;3.13;;;1.40;;
58360;SDS011;44164;44.954;10.068;2023-04-25T13:23:40;5.10;;;1.42;;
58360;SDS011;44164;44.954;10.068;2023-04-25T13:26:08;4.43;;;1.92;;
58360;SDS011;44164;44.954;10.068;2023-04-25T13:28:34;2.97;;;1.27;;
58360;SDS011;44164;44.954;10.068;2023-04-25T13:31:00;4.75;;;1.25;;
58360;SDS011;44164;44.954;10.068;2023-04-25T13:33:26;2.85;;;1.20;;
58360;SDS011;44164;44.954;10.068;2023-04-25T13:35:53;2.47;;;1.17;;
58360;SDS011;44164;44.954;10.068;2023-04-25T13:40:47;4.13;;;1.58;;
58360;SDS011;44164;44.954;10.068;2023-04-25T13:43:13;2.67;;;1.15;;
58360;SDS011;44164;44.954;10.068;2023-04-25T13:45:39;3.38;;;1.55;;
58360;SDS011;44164;44.954;10.068;2023-04-25T13:48:05;4.38;;;1.10;;
58360;SDS011;44164;44.954;10.068;2023-04-25T13:50:32;4.55;;;1.00;;
58360;SDS011;44164;44.954;10.068;2023-04-25T13:52:59;3.03;;;1.40;;
58360;SDS011;44164;44.954;10.068;2023-04-25T13:55:25;3.30;;;1.30;;
58360;SDS011;44164;44.954;10.068;2023-04-25T13:57:51;5.20;;;1.20;;
58360;SDS011;44164;44.954;10.068;2023-04-25T14:00:17;4.18;;;1.50;;
58360;SDS011;44164;44.954;10.068;2023-04-25T14:02:44;3.50;;;1.50;;
58360;SDS011;44164;44.954;10.068;2023-04-25T14:05:10;2.65;;;0.95;;
58360;SDS011;44164;44.954;10.068;2023-04-25T14:07:36;4.07;;;1.38;;
58360;SDS011;44164;44.954;10.068;2023-04-25T14:10:03;8.15;;;1.92;;
58360;SDS011;44164;44.954;10.068;2023-04-25T14:12:30;5.05;;;2.35;;
58360;SDS011;44164;44.954;10.068;2023-04-25T14:14:56;8.85;;;2.78;;
58360;SDS011;44164;44.954;10.068;2023-04-25T14:17:22;7.40;;;2.30;;
58360;SDS011;44164;44.954;10.068;2023-04-25T14:19:49;6.88;;;2.97;;
58360;SDS011;44164;44.954;10.068;2023-04-25T14:22:15;5.15;;;2.50;;
58360;SDS011;44164;44.954;10.068;2023-04-25T14:24:41;7.75;;;2.33;;
58360;SDS011;44164;44.954;10.068;2023-04-25T14:27:08;5.03;;;2.65;;
58360;SDS011;44164;44.954;10.068;2023-04-25T14:29:34;5.55;;;2.05;;
58360;SDS011;44164;44.954;10.068;2023-04-25T14:32:00;4.63;;;2.22;;
58360;SDS011;44164;44.954;10.068;2023-04-25T14:34:27;5.55;;;2.08;;
58360;SDS011;44164;44.954;10.068;2023-04-25T14:36:53;6.03;;;2.47;;
58360;SDS011;44164;44.954;10.068;2023-04-25T14:39:20;6.53;;;1.98;;
58360;SDS011;44164;44.954;10.068;2023-04-25T14:41:46;4.85;;;1.75;;
58360;SDS011;44164;44.954;10.068;2023-04-25T14:44:12;5.25;;;1.92;;
58360;SDS011;44164;44.954;10.068;2023-04-25T14:46:38;9.20;;;1.95;;
58360;SDS011;44164;44.954;10.068;2023-04-25T14:49:04;5.68;;;1.88;;
58360;SDS011;44164;44.954;10.068;2023-04-25T14:51:30;7.75;;;2.13;;
58360;SDS011;44164;44.954;10.068;2023-04-25T14:53:57;9.45;;;1.60;;
58360;SDS011;44164;44.954;10.068;2023-04-25T14:56:23;4.75;;;1.63;;
58360;SDS011;44164;44.954;10.068;2023-04-25T14:58:49;7.20;;;1.50;;
58360;SDS011;44164;44.954;10.068;2023-04-25T15:01:16;4.32;;;1.48;;
58360;SDS011;44164;44.954;10.068;2023-04-25T15:03:42;17.33;;;1.80;;
58360;SDS011;44164;44.954;10.068;2023-04-25T15:06:08;4.82;;;1.80;;
58360;SDS011;44164;44.954;10.068;2023-04-25T15:08:34;3.70;;;1.10;;
58360;SDS011;44164;44.954;10.068;2023-04-25T15:11:01;6.72;;;1.33;;